sensor_id;sensor_type;location;lat;lon;timestamp;temperature;humidity
32394;DHT22;18853;45.426;9.206;2023-03-14T00:00:36;17.60;55.90
32394;DHT22;18853;45.426;9.206;2023-03-14T00:03:02;17.50;55.80
32394;DHT22;18853;45.426;9.206;2023-03-14T00:05:28;17.50;55.80
32394;DHT22;18853;45.426;9.206;2023-03-14T00:07:54;17.40;55.90
32394;DHT22;18853;45.426;9.206;2023-03-14T00:10:19;17.40;55.90
32394;DHT22;18853;45.426;9.206;2023-03-14T00:12:45;17.40;56.00
32394;DHT22;18853;45.426;9.206;2023-03-14T00:15:11;17.40;56.00
32394;DHT22;18853;45.426;9.206;2023-03-14T00:17:37;17.40;56.00
32394;DHT22;18853;45.426;9.206;2023-03-14T00:20:06;17.40;55.90
32394;DHT22;18853;45.426;9.206;2023-03-14T00:22:37;17.40;56.00
32394;DHT22;18853;45.426;9.206;2023-03-14T00:25:04;17.40;56.10
32394;DHT22;18853;45.426;9.206;2023-03-14T00:27:31;17.40;56.00
32394;DHT22;18853;45.426;9.206;2023-03-14T00:29:56;17.40;56.10
32394;DHT22;18853;45.426;9.206;2023-03-14T00:32:22;17.30;56.10
32394;DHT22;18853;45.426;9.206;2023-03-14T00:34:49;17.30;56.20
32394;DHT22;18853;45.426;9.206;2023-03-14T00:37:14;17.40;56.00
32394;DHT22;18853;45.426;9.206;2023-03-14T00:39:40;17.40;56.10
32394;DHT22;18853;45.426;9.206;2023-03-14T00:42:06;17.30;56.10
32394;DHT22;18853;45.426;9.206;2023-03-14T00:44:32;17.40;56.30
32394;DHT22;18853;45.426;9.206;2023-03-14T00:46:58;17.30;56.40
32394;DHT22;18853;45.426;9.206;2023-03-14T00:49:24;17.30;56.50
32394;DHT22;18853;45.426;9.206;2023-03-14T00:51:50;17.20;56.60
32394;DHT22;18853;45.426;9.206;2023-03-14T00:54:17;17.20;56.70
32394;DHT22;18853;45.426;9.206;2023-03-14T00:56:43;17.20;56.80
32394;DHT22;18853;45.426;9.206;2023-03-14T00:59:08;17.20;56.70
32394;DHT22;18853;45.426;9.206;2023-03-14T01:01:34;17.20;56.80
32394;DHT22;18853;45.426;9.206;2023-03-14T01:04:00;17.20;56.80
32394;DHT22;18853;45.426;9.206;2023-03-14T01:06:28;17.20;56.70
32394;DHT22;18853;45.426;9.206;2023-03-14T01:08:55;17.20;56.80
32394;DHT22;18853;45.426;9.206;2023-03-14T01:11:30;17.20;56.60
32394;DHT22;18853;45.426;9.206;2023-03-14T01:13:56;17.20;56.50
32394;DHT22;18853;45.426;9.206;2023-03-14T01:16:23;17.20;56.50
32394;DHT22;18853;45.426;9.206;2023-03-14T01:18:50;17.20;56.60
32394;DHT22;18853;45.426;9.206;2023-03-14T01:21:27;17.20;56.50
32394;DHT22;18853;45.426;9.206;2023-03-14T01:23:55;17.30;56.40
32394;DHT22;18853;45.426;9.206;2023-03-14T01:26:23;17.30;56.90
32394;DHT22;18853;45.426;9.206;2023-03-14T01:28:50;17.20;56.80
32394;DHT22;18853;45.426;9.206;2023-03-14T01:31:16;17.20;56.00
32394;DHT22;18853;45.426;9.206;2023-03-14T01:33:42;17.10;56.00
32394;DHT22;18853;45.426;9.206;2023-03-14T01:36:09;17.10;55.80
32394;DHT22;18853;45.426;9.206;2023-03-14T01:38:36;17.10;55.70
32394;DHT22;18853;45.426;9.206;2023-03-14T01:41:02;17.20;55.70
32394;DHT22;18853;45.426;9.206;2023-03-14T01:43:29;17.10;55.50
32394;DHT22;18853;45.426;9.206;2023-03-14T01:48:36;17.10;55.40
32394;DHT22;18853;45.426;9.206;2023-03-14T01:51:08;17.10;55.30
32394;DHT22;18853;45.426;9.206;2023-03-14T01:53:35;17.10;55.10
32394;DHT22;18853;45.426;9.206;2023-03-14T01:56:02;17.10;55.10
32394;DHT22;18853;45.426;9.206;2023-03-14T01:58:30;17.10;54.80
32394;DHT22;18853;45.426;9.206;2023-03-14T02:00:58;17.10;54.80
32394;DHT22;18853;45.426;9.206;2023-03-14T02:03:25;17.20;54.80
32394;DHT22;18853;45.426;9.206;2023-03-14T02:05:54;17.20;54.70
32394;DHT22;18853;45.426;9.206;2023-03-14T02:08:22;17.10;54.50
32394;DHT22;18853;45.426;9.206;2023-03-14T02:10:50;17.10;54.50
32394;DHT22;18853;45.426;9.206;2023-03-14T02:13:19;17.00;54.50
32394;DHT22;18853;45.426;9.206;2023-03-14T02:15:47;17.00;54.50
32394;DHT22;18853;45.426;9.206;2023-03-14T02:18:14;17.00;54.50
32394;DHT22;18853;45.426;9.206;2023-03-14T02:21:00;16.90;54.50
32394;DHT22;18853;45.426;9.206;2023-03-14T02:24:13;17.10;54.40
32394;DHT22;18853;45.426;9.206;2023-03-14T02:29:41;16.90;54.40
32394;DHT22;18853;45.426;9.206;2023-03-14T02:32:08;16.90;54.50
32394;DHT22;18853;45.426;9.206;2023-03-14T02:34:34;17.00;54.30
32394;DHT22;18853;45.426;9.206;2023-03-14T02:37:02;17.00;54.10
32394;DHT22;18853;45.426;9.206;2023-03-14T02:39:39;17.00;54.10
32394;DHT22;18853;45.426;9.206;2023-03-14T02:42:07;16.90;54.00
32394;DHT22;18853;45.426;9.206;2023-03-14T02:44:32;16.90;54.00
32394;DHT22;18853;45.426;9.206;2023-03-14T02:46:58;16.90;53.80
32394;DHT22;18853;45.426;9.206;2023-03-14T02:49:26;16.90;53.80
32394;DHT22;18853;45.426;9.206;2023-03-14T02:51:53;16.90;53.80
32394;DHT22;18853;45.426;9.206;2023-03-14T02:54:19;16.80;53.70
32394;DHT22;18853;45.426;9.206;2023-03-14T02:56:45;16.90;53.60
32394;DHT22;18853;45.426;9.206;2023-03-14T02:59:11;16.90;53.60
32394;DHT22;18853;45.426;9.206;2023-03-14T03:01:37;16.90;53.60
32394;DHT22;18853;45.426;9.206;2023-03-14T03:04:04;16.90;53.50
32394;DHT22;18853;45.426;9.206;2023-03-14T03:06:30;16.80;53.40
32394;DHT22;18853;45.426;9.206;2023-03-14T03:08:55;16.90;53.40
32394;DHT22;18853;45.426;9.206;2023-03-14T03:11:21;16.80;53.30
32394;DHT22;18853;45.426;9.206;2023-03-14T03:13:47;16.80;53.40
32394;DHT22;18853;45.426;9.206;2023-03-14T03:16:12;16.90;53.30
32394;DHT22;18853;45.426;9.206;2023-03-14T03:18:40;16.90;53.20
32394;DHT22;18853;45.426;9.206;2023-03-14T03:21:06;16.90;53.20
32394;DHT22;18853;45.426;9.206;2023-03-14T03:23:34;16.90;53.00
32394;DHT22;18853;45.426;9.206;2023-03-14T03:25:59;16.90;53.00
32394;DHT22;18853;45.426;9.206;2023-03-14T03:28:25;16.90;53.10
32394;DHT22;18853;45.426;9.206;2023-03-14T03:30:51;16.90;53.40
32394;DHT22;18853;45.426;9.206;2023-03-14T03:33:16;16.90;53.60
32394;DHT22;18853;45.426;9.206;2023-03-14T03:35:46;16.90;53.50
32394;DHT22;18853;45.426;9.206;2023-03-14T03:38:12;16.90;53.50
32394;DHT22;18853;45.426;9.206;2023-03-14T03:40:38;16.90;53.60
32394;DHT22;18853;45.426;9.206;2023-03-14T03:43:04;16.90;53.80
32394;DHT22;18853;45.426;9.206;2023-03-14T03:45:30;16.90;53.90
32394;DHT22;18853;45.426;9.206;2023-03-14T03:47:56;16.90;53.90
32394;DHT22;18853;45.426;9.206;2023-03-14T03:50:21;16.90;54.10
32394;DHT22;18853;45.426;9.206;2023-03-14T03:52:47;16.90;54.20
32394;DHT22;18853;45.426;9.206;2023-03-14T03:55:13;16.90;54.40
32394;DHT22;18853;45.426;9.206;2023-03-14T03:57:38;16.90;54.80
32394;DHT22;18853;45.426;9.206;2023-03-14T04:00:05;16.90;55.20
32394;DHT22;18853;45.426;9.206;2023-03-14T04:02:31;16.80;55.70
32394;DHT22;18853;45.426;9.206;2023-03-14T04:04:57;16.80;55.90
32394;DHT22;18853;45.426;9.206;2023-03-14T04:07:22;16.80;56.30
32394;DHT22;18853;45.426;9.206;2023-03-14T04:09:48;16.70;56.40
32394;DHT22;18853;45.426;9.206;2023-03-14T04:12:13;16.70;56.60
32394;DHT22;18853;45.426;9.206;2023-03-14T04:14:39;16.70;56.90
32394;DHT22;18853;45.426;9.206;2023-03-14T04:17:06;16.70;56.60
32394;DHT22;18853;45.426;9.206;2023-03-14T04:19:32;16.70;57.10
32394;DHT22;18853;45.426;9.206;2023-03-14T04:21:58;16.70;57.50
32394;DHT22;18853;45.426;9.206;2023-03-14T04:24:23;16.70;57.10
32394;DHT22;18853;45.426;9.206;2023-03-14T04:26:49;16.70;58.10
32394;DHT22;18853;45.426;9.206;2023-03-14T04:29:15;16.60;58.20
32394;DHT22;18853;45.426;9.206;2023-03-14T04:31:40;16.60;58.40
32394;DHT22;18853;45.426;9.206;2023-03-14T04:34:06;16.60;58.60
32394;DHT22;18853;45.426;9.206;2023-03-14T04:36:31;16.50;58.80
32394;DHT22;18853;45.426;9.206;2023-03-14T04:38:57;16.50;59.30
32394;DHT22;18853;45.426;9.206;2023-03-14T04:41:23;16.40;59.50
32394;DHT22;18853;45.426;9.206;2023-03-14T04:43:48;16.50;59.30
32394;DHT22;18853;45.426;9.206;2023-03-14T04:46:14;16.50;59.70
32394;DHT22;18853;45.426;9.206;2023-03-14T04:48:39;16.50;60.10
32394;DHT22;18853;45.426;9.206;2023-03-14T04:51:05;16.40;59.70
32394;DHT22;18853;45.426;9.206;2023-03-14T04:53:31;16.40;59.80
32394;DHT22;18853;45.426;9.206;2023-03-14T04:55:57;16.40;59.20
32394;DHT22;18853;45.426;9.206;2023-03-14T04:58:23;16.40;59.20
32394;DHT22;18853;45.426;9.206;2023-03-14T05:00:49;16.40;59.10
32394;DHT22;18853;45.426;9.206;2023-03-14T05:03:16;16.40;59.20
32394;DHT22;18853;45.426;9.206;2023-03-14T05:05:41;16.40;59.40
32394;DHT22;18853;45.426;9.206;2023-03-14T05:08:07;16.40;59.00
32394;DHT22;18853;45.426;9.206;2023-03-14T05:10:33;16.40;59.30
32394;DHT22;18853;45.426;9.206;2023-03-14T05:12:59;16.40;59.40
32394;DHT22;18853;45.426;9.206;2023-03-14T05:15:24;16.40;59.40
32394;DHT22;18853;45.426;9.206;2023-03-14T05:17:50;16.40;59.40
32394;DHT22;18853;45.426;9.206;2023-03-14T05:20:15;16.40;59.30
32394;DHT22;18853;45.426;9.206;2023-03-14T05:22:42;16.40;59.30
32394;DHT22;18853;45.426;9.206;2023-03-14T05:25:08;16.40;59.40
32394;DHT22;18853;45.426;9.206;2023-03-14T05:27:35;16.40;59.50
32394;DHT22;18853;45.426;9.206;2023-03-14T05:30:01;16.30;59.40
32394;DHT22;18853;45.426;9.206;2023-03-14T05:32:28;16.20;59.50
32394;DHT22;18853;45.426;9.206;2023-03-14T05:34:53;16.20;59.70
32394;DHT22;18853;45.426;9.206;2023-03-14T05:37:23;16.20;59.70
32394;DHT22;18853;45.426;9.206;2023-03-14T05:39:49;16.20;59.60
32394;DHT22;18853;45.426;9.206;2023-03-14T05:42:14;16.20;59.20
32394;DHT22;18853;45.426;9.206;2023-03-14T05:44:40;16.20;59.30
32394;DHT22;18853;45.426;9.206;2023-03-14T05:47:06;16.20;59.40
32394;DHT22;18853;45.426;9.206;2023-03-14T05:49:31;16.20;59.40
32394;DHT22;18853;45.426;9.206;2023-03-14T05:51:57;16.20;59.40
32394;DHT22;18853;45.426;9.206;2023-03-14T05:54:23;16.20;59.40
32394;DHT22;18853;45.426;9.206;2023-03-14T05:56:48;16.20;59.20
32394;DHT22;18853;45.426;9.206;2023-03-14T05:59:14;16.30;58.90
32394;DHT22;18853;45.426;9.206;2023-03-14T06:01:40;16.30;58.80
32394;DHT22;18853;45.426;9.206;2023-03-14T06:04:06;16.40;58.50
32394;DHT22;18853;45.426;9.206;2023-03-14T06:06:31;16.40;58.60
32394;DHT22;18853;45.426;9.206;2023-03-14T06:08:57;16.40;58.30
32394;DHT22;18853;45.426;9.206;2023-03-14T06:11:22;16.40;58.10
32394;DHT22;18853;45.426;9.206;2023-03-14T06:13:48;16.40;58.20
32394;DHT22;18853;45.426;9.206;2023-03-14T06:16:14;16.50;57.90
32394;DHT22;18853;45.426;9.206;2023-03-14T06:18:40;16.50;58.00
32394;DHT22;18853;45.426;9.206;2023-03-14T06:21:05;16.50;58.00
32394;DHT22;18853;45.426;9.206;2023-03-14T06:23:31;16.50;58.10
32394;DHT22;18853;45.426;9.206;2023-03-14T06:25:57;16.50;58.20
32394;DHT22;18853;45.426;9.206;2023-03-14T06:28:23;16.50;58.50
32394;DHT22;18853;45.426;9.206;2023-03-14T06:30:49;16.50;58.50
32394;DHT22;18853;45.426;9.206;2023-03-14T06:33:14;16.40;58.50
32394;DHT22;18853;45.426;9.206;2023-03-14T06:35:40;16.40;58.40
32394;DHT22;18853;45.426;9.206;2023-03-14T06:38:05;16.40;58.40
32394;DHT22;18853;45.426;9.206;2023-03-14T06:40:31;16.40;58.50
32394;DHT22;18853;45.426;9.206;2023-03-14T06:42:57;16.40;58.50
32394;DHT22;18853;45.426;9.206;2023-03-14T06:45:22;16.40;58.70
32394;DHT22;18853;45.426;9.206;2023-03-14T06:47:48;16.40;58.70
32394;DHT22;18853;45.426;9.206;2023-03-14T06:50:14;16.40;58.70
32394;DHT22;18853;45.426;9.206;2023-03-14T06:52:40;16.40;58.70
32394;DHT22;18853;45.426;9.206;2023-03-14T06:55:13;16.40;58.70
32394;DHT22;18853;45.426;9.206;2023-03-14T06:57:39;16.40;58.90
32394;DHT22;18853;45.426;9.206;2023-03-14T07:00:05;16.40;58.80
32394;DHT22;18853;45.426;9.206;2023-03-14T07:02:31;16.40;58.80
32394;DHT22;18853;45.426;9.206;2023-03-14T07:04:57;16.40;58.90
32394;DHT22;18853;45.426;9.206;2023-03-14T07:07:22;16.40;59.10
32394;DHT22;18853;45.426;9.206;2023-03-14T07:09:48;16.40;59.10
32394;DHT22;18853;45.426;9.206;2023-03-14T07:12:14;16.30;59.20
32394;DHT22;18853;45.426;9.206;2023-03-14T07:14:39;16.30;59.30
32394;DHT22;18853;45.426;9.206;2023-03-14T07:17:05;16.40;59.30
32394;DHT22;18853;45.426;9.206;2023-03-14T07:19:30;16.40;59.50
32394;DHT22;18853;45.426;9.206;2023-03-14T07:21:56;16.40;59.70
32394;DHT22;18853;45.426;9.206;2023-03-14T07:24:22;16.40;59.50
32394;DHT22;18853;45.426;9.206;2023-03-14T07:26:48;16.40;59.30
32394;DHT22;18853;45.426;9.206;2023-03-14T07:29:14;16.40;59.20
32394;DHT22;18853;45.426;9.206;2023-03-14T07:31:39;16.40;59.30
32394;DHT22;18853;45.426;9.206;2023-03-14T07:34:05;16.40;59.30
32394;DHT22;18853;45.426;9.206;2023-03-14T07:36:31;16.50;59.20
32394;DHT22;18853;45.426;9.206;2023-03-14T07:38:56;16.50;59.30
32394;DHT22;18853;45.426;9.206;2023-03-14T07:41:22;16.50;59.30
32394;DHT22;18853;45.426;9.206;2023-03-14T07:43:48;16.50;59.80
32394;DHT22;18853;45.426;9.206;2023-03-14T07:46:14;16.60;59.00
32394;DHT22;18853;45.426;9.206;2023-03-14T07:48:41;16.60;59.10
32394;DHT22;18853;45.426;9.206;2023-03-14T07:51:06;16.70;59.00
32394;DHT22;18853;45.426;9.206;2023-03-14T07:53:32;16.70;59.10
32394;DHT22;18853;45.426;9.206;2023-03-14T07:55:58;16.70;58.80
32394;DHT22;18853;45.426;9.206;2023-03-14T07:58:23;16.70;58.90
32394;DHT22;18853;45.426;9.206;2023-03-14T08:00:51;16.60;59.70
32394;DHT22;18853;45.426;9.206;2023-03-14T08:03:17;16.60;59.30
32394;DHT22;18853;45.426;9.206;2023-03-14T08:05:43;16.60;59.20
32394;DHT22;18853;45.426;9.206;2023-03-14T08:08:12;16.60;59.20
32394;DHT22;18853;45.426;9.206;2023-03-14T08:10:37;16.50;59.10
32394;DHT22;18853;45.426;9.206;2023-03-14T08:13:03;16.50;59.10
32394;DHT22;18853;45.426;9.206;2023-03-14T08:15:30;16.50;59.20
32394;DHT22;18853;45.426;9.206;2023-03-14T08:17:55;16.40;59.40
32394;DHT22;18853;45.426;9.206;2023-03-14T08:20:23;16.40;59.50
32394;DHT22;18853;45.426;9.206;2023-03-14T08:22:49;16.50;59.60
32394;DHT22;18853;45.426;9.206;2023-03-14T08:25:15;16.50;59.60
32394;DHT22;18853;45.426;9.206;2023-03-14T08:27:41;16.60;59.70
32394;DHT22;18853;45.426;9.206;2023-03-14T08:30:12;16.60;59.70
32394;DHT22;18853;45.426;9.206;2023-03-14T08:32:38;16.60;59.60
32394;DHT22;18853;45.426;9.206;2023-03-14T08:35:05;16.60;59.40
32394;DHT22;18853;45.426;9.206;2023-03-14T08:37:31;16.70;59.40
32394;DHT22;18853;45.426;9.206;2023-03-14T08:39:57;16.70;59.20
32394;DHT22;18853;45.426;9.206;2023-03-14T08:42:23;16.80;59.20
32394;DHT22;18853;45.426;9.206;2023-03-14T08:44:50;16.80;59.00
32394;DHT22;18853;45.426;9.206;2023-03-14T08:47:15;16.80;58.70
32394;DHT22;18853;45.426;9.206;2023-03-14T08:49:41;16.80;58.60
32394;DHT22;18853;45.426;9.206;2023-03-14T08:52:06;16.80;58.50
32394;DHT22;18853;45.426;9.206;2023-03-14T08:54:32;16.90;58.60
32394;DHT22;18853;45.426;9.206;2023-03-14T08:56:58;16.90;58.50
32394;DHT22;18853;45.426;9.206;2023-03-14T08:59:24;17.00;58.30
32394;DHT22;18853;45.426;9.206;2023-03-14T09:01:49;17.10;58.20
32394;DHT22;18853;45.426;9.206;2023-03-14T09:04:15;17.10;58.20
32394;DHT22;18853;45.426;9.206;2023-03-14T09:06:41;17.20;58.20
32394;DHT22;18853;45.426;9.206;2023-03-14T09:09:07;17.20;58.00
32394;DHT22;18853;45.426;9.206;2023-03-14T09:11:33;17.30;58.00
32394;DHT22;18853;45.426;9.206;2023-03-14T09:13:59;17.30;58.20
32394;DHT22;18853;45.426;9.206;2023-03-14T09:16:25;17.30;57.80
32394;DHT22;18853;45.426;9.206;2023-03-14T09:18:50;17.30;57.90
32394;DHT22;18853;45.426;9.206;2023-03-14T09:21:20;17.30;58.20
32394;DHT22;18853;45.426;9.206;2023-03-14T09:23:46;17.30;58.10
32394;DHT22;18853;45.426;9.206;2023-03-14T09:26:12;17.20;58.00
32394;DHT22;18853;45.426;9.206;2023-03-14T09:28:37;17.30;58.30
32394;DHT22;18853;45.426;9.206;2023-03-14T09:31:07;17.30;58.00
32394;DHT22;18853;45.426;9.206;2023-03-14T09:33:33;17.30;58.00
32394;DHT22;18853;45.426;9.206;2023-03-14T09:36:01;17.30;58.00
32394;DHT22;18853;45.426;9.206;2023-03-14T09:38:27;17.40;58.00
32394;DHT22;18853;45.426;9.206;2023-03-14T09:40:54;17.40;58.00
32394;DHT22;18853;45.426;9.206;2023-03-14T09:43:22;17.40;57.80
32394;DHT22;18853;45.426;9.206;2023-03-14T09:45:50;17.40;58.00
32394;DHT22;18853;45.426;9.206;2023-03-14T09:48:20;17.40;58.20
32394;DHT22;18853;45.426;9.206;2023-03-14T09:50:49;17.30;57.80
32394;DHT22;18853;45.426;9.206;2023-03-14T09:53:27;17.30;58.10
32394;DHT22;18853;45.426;9.206;2023-03-14T09:55:54;17.30;58.00
32394;DHT22;18853;45.426;9.206;2023-03-14T09:58:24;17.30;58.20
32394;DHT22;18853;45.426;9.206;2023-03-14T10:00:53;17.40;58.00
32394;DHT22;18853;45.426;9.206;2023-03-14T10:03:33;17.50;58.00
32394;DHT22;18853;45.426;9.206;2023-03-14T10:05:59;17.70;58.10
32394;DHT22;18853;45.426;9.206;2023-03-14T10:08:25;17.60;57.60
32394;DHT22;18853;45.426;9.206;2023-03-14T10:10:50;17.70;57.50
32394;DHT22;18853;45.426;9.206;2023-03-14T10:13:21;17.70;57.50
32394;DHT22;18853;45.426;9.206;2023-03-14T10:16:02;17.70;57.50
32394;DHT22;18853;45.426;9.206;2023-03-14T10:18:31;17.70;57.20
32394;DHT22;18853;45.426;9.206;2023-03-14T10:23:49;18.00;56.60
32394;DHT22;18853;45.426;9.206;2023-03-14T10:26:26;18.00;56.40
32394;DHT22;18853;45.426;9.206;2023-03-14T10:28:55;18.10;56.60
32394;DHT22;18853;45.426;9.206;2023-03-14T10:31:26;18.10;56.40
32394;DHT22;18853;45.426;9.206;2023-03-14T10:34:04;18.10;56.00
32394;DHT22;18853;45.426;9.206;2023-03-14T10:36:32;18.20;56.40
32394;DHT22;18853;45.426;9.206;2023-03-14T10:39:22;18.30;56.10
32394;DHT22;18853;45.426;9.206;2023-03-14T10:42:33;18.50;55.50
32394;DHT22;18853;45.426;9.206;2023-03-14T10:44:39;18.50;55.90
32394;DHT22;18853;45.426;9.206;2023-03-14T10:47:12;18.60;55.60
32394;DHT22;18853;45.426;9.206;2023-03-14T10:49:40;18.60;55.10
32394;DHT22;18853;45.426;9.206;2023-03-14T10:54:34;18.70;55.00
32394;DHT22;18853;45.426;9.206;2023-03-14T10:57:01;18.70;55.00
32394;DHT22;18853;45.426;9.206;2023-03-14T10:59:35;18.60;54.70
32394;DHT22;18853;45.426;9.206;2023-03-14T11:05:18;18.60;54.10
32394;DHT22;18853;45.426;9.206;2023-03-14T11:07:45;18.60;54.30
32394;DHT22;18853;45.426;9.206;2023-03-14T11:10:31;18.60;54.30
32394;DHT22;18853;45.426;9.206;2023-03-14T11:15:38;18.80;54.40
32394;DHT22;18853;45.426;9.206;2023-03-14T11:18:51;19.00;54.10
32394;DHT22;18853;45.426;9.206;2023-03-14T11:24:12;19.00;54.00
32394;DHT22;18853;45.426;9.206;2023-03-14T11:29:39;18.80;53.60
32394;DHT22;18853;45.426;9.206;2023-03-14T11:32:13;18.60;54.20
32394;DHT22;18853;45.426;9.206;2023-03-14T11:34:51;18.60;54.10
32394;DHT22;18853;45.426;9.206;2023-03-14T11:40:11;18.40;53.90
32394;DHT22;18853;45.426;9.206;2023-03-14T11:42:39;18.40;53.80
32394;DHT22;18853;45.426;9.206;2023-03-14T11:45:18;18.40;53.90
32394;DHT22;18853;45.426;9.206;2023-03-14T11:47:49;18.40;53.90
32394;DHT22;18853;45.426;9.206;2023-03-14T11:50:27;18.40;53.90
32394;DHT22;18853;45.426;9.206;2023-03-14T11:55:29;18.60;53.60
32394;DHT22;18853;45.426;9.206;2023-03-14T11:58:01;18.60;53.80
32394;DHT22;18853;45.426;9.206;2023-03-14T12:00:28;18.60;53.50
32394;DHT22;18853;45.426;9.206;2023-03-14T12:03:09;18.70;53.60
32394;DHT22;18853;45.426;9.206;2023-03-14T12:06:04;18.80;53.30
32394;DHT22;18853;45.426;9.206;2023-03-14T12:11:31;19.00;52.20
32394;DHT22;18853;45.426;9.206;2023-03-14T12:13:59;19.00;52.30
32394;DHT22;18853;45.426;9.206;2023-03-14T12:16:38;19.00;52.40
32394;DHT22;18853;45.426;9.206;2023-03-14T12:19:39;19.00;51.80
32394;DHT22;18853;45.426;9.206;2023-03-14T12:24:34;18.90;52.30
32394;DHT22;18853;45.426;9.206;2023-03-14T12:27:03;18.80;52.20
32394;DHT22;18853;45.426;9.206;2023-03-14T12:29:29;18.90;52.40
32394;DHT22;18853;45.426;9.206;2023-03-14T12:34:28;18.90;52.60
32394;DHT22;18853;45.426;9.206;2023-03-14T12:36:56;19.00;52.60
32394;DHT22;18853;45.426;9.206;2023-03-14T12:39:42;19.00;52.80
32394;DHT22;18853;45.426;9.206;2023-03-14T12:48:08;19.00;52.80
32394;DHT22;18853;45.426;9.206;2023-03-14T12:50:43;19.00;53.00
32394;DHT22;18853;45.426;9.206;2023-03-14T12:55:51;19.00;53.20
32394;DHT22;18853;45.426;9.206;2023-03-14T13:01:22;19.10;53.20
32394;DHT22;18853;45.426;9.206;2023-03-14T13:03:52;19.00;53.30
32394;DHT22;18853;45.426;9.206;2023-03-14T13:06:50;19.10;53.10
32394;DHT22;18853;45.426;9.206;2023-03-14T13:11:55;19.10;53.00
32394;DHT22;18853;45.426;9.206;2023-03-14T13:14:22;19.20;53.50
32394;DHT22;18853;45.426;9.206;2023-03-14T13:16:48;19.20;53.90
32394;DHT22;18853;45.426;9.206;2023-03-14T13:19:28;19.40;53.60
32394;DHT22;18853;45.426;9.206;2023-03-14T13:22:04;19.60;54.10
32394;DHT22;18853;45.426;9.206;2023-03-14T13:24:33;19.60;53.70
32394;DHT22;18853;45.426;9.206;2023-03-14T13:27:00;19.70;53.60
32394;DHT22;18853;45.426;9.206;2023-03-14T13:29:30;19.80;53.30
32394;DHT22;18853;45.426;9.206;2023-03-14T13:31:59;19.80;53.70
32394;DHT22;18853;45.426;9.206;2023-03-14T13:34:31;19.70;53.50
32394;DHT22;18853;45.426;9.206;2023-03-14T13:36:57;19.70;53.30
32394;DHT22;18853;45.426;9.206;2023-03-14T13:39:25;19.70;53.30
32394;DHT22;18853;45.426;9.206;2023-03-14T13:42:01;19.80;53.20
32394;DHT22;18853;45.426;9.206;2023-03-14T13:44:31;20.00;52.90
32394;DHT22;18853;45.426;9.206;2023-03-14T13:47:00;20.10;52.20
32394;DHT22;18853;45.426;9.206;2023-03-14T13:49:27;20.10;51.80
32394;DHT22;18853;45.426;9.206;2023-03-14T13:51:54;20.10;51.50
32394;DHT22;18853;45.426;9.206;2023-03-14T13:54:21;20.30;51.20
32394;DHT22;18853;45.426;9.206;2023-03-14T13:56:48;20.50;51.00
32394;DHT22;18853;45.426;9.206;2023-03-14T14:01:52;20.50;49.40
32394;DHT22;18853;45.426;9.206;2023-03-14T14:04:20;20.40;50.50
32394;DHT22;18853;45.426;9.206;2023-03-14T14:06:53;20.40;50.20
32394;DHT22;18853;45.426;9.206;2023-03-14T14:09:31;20.40;50.40
32394;DHT22;18853;45.426;9.206;2023-03-14T14:12:07;20.40;49.70
32394;DHT22;18853;45.426;9.206;2023-03-14T14:17:05;20.30;50.10
32394;DHT22;18853;45.426;9.206;2023-03-14T14:19:34;20.20;50.20
32394;DHT22;18853;45.426;9.206;2023-03-14T14:22:00;20.10;50.10
32394;DHT22;18853;45.426;9.206;2023-03-14T14:24:30;20.10;50.10
32394;DHT22;18853;45.426;9.206;2023-03-14T14:27:38;20.10;50.10
32394;DHT22;18853;45.426;9.206;2023-03-14T14:32:45;20.10;50.10
32394;DHT22;18853;45.426;9.206;2023-03-14T14:35:39;20.10;50.10
32394;DHT22;18853;45.426;9.206;2023-03-14T14:38:12;20.20;50.10
32394;DHT22;18853;45.426;9.206;2023-03-14T14:40:54;20.20;50.20
32394;DHT22;18853;45.426;9.206;2023-03-14T14:43:23;20.20;50.10
32394;DHT22;18853;45.426;9.206;2023-03-14T14:45:51;20.20;50.20
32394;DHT22;18853;45.426;9.206;2023-03-14T14:48:23;20.20;50.20
32394;DHT22;18853;45.426;9.206;2023-03-14T14:50:59;20.20;50.20
32394;DHT22;18853;45.426;9.206;2023-03-14T14:53:39;20.20;50.30
32394;DHT22;18853;45.426;9.206;2023-03-14T14:56:18;20.20;50.20
32394;DHT22;18853;45.426;9.206;2023-03-14T14:58:49;20.20;50.30
32394;DHT22;18853;45.426;9.206;2023-03-14T15:01:22;20.30;50.20
32394;DHT22;18853;45.426;9.206;2023-03-14T15:03:51;20.50;50.50
32394;DHT22;18853;45.426;9.206;2023-03-14T15:06:18;20.50;49.70
32394;DHT22;18853;45.426;9.206;2023-03-14T15:08:46;20.60;49.70
32394;DHT22;18853;45.426;9.206;2023-03-14T15:11:21;20.60;49.70
32394;DHT22;18853;45.426;9.206;2023-03-14T15:13:48;20.70;49.40
32394;DHT22;18853;45.426;9.206;2023-03-14T15:16:16;20.60;49.40
32394;DHT22;18853;45.426;9.206;2023-03-14T15:18:42;20.60;49.50
32394;DHT22;18853;45.426;9.206;2023-03-14T15:21:09;20.50;49.70
32394;DHT22;18853;45.426;9.206;2023-03-14T15:23:35;20.50;49.90
32394;DHT22;18853;45.426;9.206;2023-03-14T15:26:01;20.30;50.10
32394;DHT22;18853;45.426;9.206;2023-03-14T15:28:28;20.30;50.40
32394;DHT22;18853;45.426;9.206;2023-03-14T15:30:56;20.30;50.60
32394;DHT22;18853;45.426;9.206;2023-03-14T15:33:23;20.20;50.60
32394;DHT22;18853;45.426;9.206;2023-03-14T15:35:50;20.10;50.80
32394;DHT22;18853;45.426;9.206;2023-03-14T15:38:18;20.10;50.80
32394;DHT22;18853;45.426;9.206;2023-03-14T15:40:49;20.10;51.40
32394;DHT22;18853;45.426;9.206;2023-03-14T15:43:15;20.00;51.00
32394;DHT22;18853;45.426;9.206;2023-03-14T15:45:41;19.90;51.20
32394;DHT22;18853;45.426;9.206;2023-03-14T15:48:14;19.90;51.50
32394;DHT22;18853;45.426;9.206;2023-03-14T15:50:40;19.80;51.70
32394;DHT22;18853;45.426;9.206;2023-03-14T15:53:06;19.70;52.00
32394;DHT22;18853;45.426;9.206;2023-03-14T15:55:32;19.70;52.20
32394;DHT22;18853;45.426;9.206;2023-03-14T15:57:57;19.60;52.30
32394;DHT22;18853;45.426;9.206;2023-03-14T16:00:24;19.60;52.40
32394;DHT22;18853;45.426;9.206;2023-03-14T16:02:50;19.60;52.40
32394;DHT22;18853;45.426;9.206;2023-03-14T16:05:16;19.60;52.60
32394;DHT22;18853;45.426;9.206;2023-03-14T16:07:44;19.60;52.60
32394;DHT22;18853;45.426;9.206;2023-03-14T16:10:11;19.50;52.70
32394;DHT22;18853;45.426;9.206;2023-03-14T16:12:37;19.50;52.80
32394;DHT22;18853;45.426;9.206;2023-03-14T16:15:03;19.40;52.90
32394;DHT22;18853;45.426;9.206;2023-03-14T16:17:29;19.40;53.00
32394;DHT22;18853;45.426;9.206;2023-03-14T16:19:54;19.40;53.20
32394;DHT22;18853;45.426;9.206;2023-03-14T16:22:20;19.40;53.30
32394;DHT22;18853;45.426;9.206;2023-03-14T16:24:46;19.30;53.30
32394;DHT22;18853;45.426;9.206;2023-03-14T16:27:12;19.30;53.50
32394;DHT22;18853;45.426;9.206;2023-03-14T16:29:37;19.30;53.50
32394;DHT22;18853;45.426;9.206;2023-03-14T16:32:03;19.30;53.50
32394;DHT22;18853;45.426;9.206;2023-03-14T16:34:29;19.40;53.40